Marina, Croatia
Current Conditions -  °F | °C
As of 9:30 AM on Friday 28 Nov 2014 (Local Time) from LDSP Reporting Station
Few Clouds Few Clouds  
Wind Chill: 16°   Ceiling: Unl
Heat Index: 16°   Visibility: 6mi
Dew Point: 13°   Wind: 8mph
Humidity: 82%   Direction: 80°E
Pressure: 30.03"   Gusts: NA
Location:  43.51°N, 16.1°E
Report Text: LDSP 280830Z 08007KT 030V140 9999 FEW023 16/13 Q1017 NOSIG
Loading
Personal Weather Stations






























Interactive Weather Map New forecast layout! Learn more

10-Day Weather Forecast

Advertisements
Track Severe Weather on mobile